Saluda, VA (23149)

2:05 AM EDT on September 03, 2015 (GMT -0400)
Saluda | | Change Station
CLOSE
Current Station
Personal Weather Station
Location: Saluda, VA
Elevation: 79 ft
Nearby Weather Stations

Elev 79 ft 37.59 °N, 76.59 °W | Updated 15 minutes ago

Partly Cloudy
Partly Cloudy
70.0 °F
Feels Like 70.0 °F
N
0.0
Wind Variable Wind from SW

Today
High -- | Low -- °F
--% Chance of Precip.
Yesterday
High -- | Low -- °F
Precip. -- in
6:38 AM 7:32 PM
Waning Gibbous, 73% visible
Pressure 29.95 in
Visibility 10.0 miles
Clouds Clear
Dew Point 68 °F
Humidity 92%
Rainfall 0.00 in
Snow Depth Not available.
UV 0 out of 12
Pollen 9.60 out of 12
Air Quality Not available.
Flu Activity Not available.
METAR KFYJ 030555Z AUTO 28004KT 10SM CLR 24/21 A2995 RMK AO2 T02350205 10255 20232 403450213
Pressure 29.95 in
Visibility 10.0 miles
Clouds Clear
Dew Point 68 °F
Humidity 92%
Rainfall 0.00 in
Snow Depth Not available.
UV 0 out of 12
Pollen 9.60 out of 12
Air Quality Not available.
Flu Activity Not available.
METAR KFYJ 030555Z AUTO 28004KT 10SM CLR 24/21 A2995 RMK AO2 T02350205 10255 20232 403450213

10-Day Weather Forecast

×

Almanac

Astronomy

Sep. 03, 2015 Rise Set
Actual Time
Civil Twilight
Nautical Twilight
Astronomical Twilight
Moon
Length of Visible Light
Length of Day
Tomorrow will be .
, % of the Moon is Illuminated

Today's Extremes

State Highs State Lows

Community

WunderPhotos

Upload Photos

1,851,914 photos uploaded!

WunderBlogs® & News

Nearby

Air Quality

  Air Quality AQ Index Pollutant
Not available.

Snow Depth

Station Depth Elevation

Earthquake Activity

City Distance Mag. Time & Date
Minimum magnitude displayed is 2.5.

Coastal Water Temperatures

Place Temperature

Stations

Nearby Weather Stations

Station Location Temp. Windchill Dew Point Humidity Wind Precip. Elev Updated Type